»·PEaware :: N863CB KSLC-KSNA

N863CB :: KSLC-KSNA

FLIGHT INFORMATION

Flight Status: Arrived
Operator: Privately registered:
United States
More flights under this callsign
Pilot: Carl E. (19279)
Aircraft: PILATUS PC-12 EAGLE
(PC12)
More flights by this aircraft type
Origin: KSLC Salt Lake City Intl
United States
Destination: KSNA John Wayne-Orange Co
United States
More flights between these airports :: More routes between these airports
Route: +SLC4 FFU V235 DTA V21 MLF HEC KAYOH7
File this flight plan on PilotEdge
Remarks:
Altitude:
(Current/Filed)
16,000ft
Speed:
(Current/Filed)
240kts
Departed: 06-Oct-18 01:35 PM
Arrived: 06-Oct-18 05:34 PM
Distance/Time
Traveled:
512nm/3:59
Distance/Time
To Go:
Arrived

Flight Plot

Page will automatically refresh every two minutes.

Flight plan parsing failed; only flown route is shown


Map Options




Map Legend


Flown Route
Filed Route
Departure Airport
Arrival Airport
Navaid (VOR, NDB)
Fix

Horizontal Profiles

Position Reports

Time Latitude Longitude Heading Altitude Ground
Speed
06-Oct-18 13:02 40.773273 -111.958354 320 4231ft 0kts
06-Oct-18 13:03 40.773273 -111.958354 320 4231ft 0kts
06-Oct-18 13:04 40.773273 -111.958354 320 4231ft 0kts
06-Oct-18 13:05 40.773273 -111.958354 320 4231ft 0kts
06-Oct-18 13:06 40.773273 -111.958354 320 4231ft 0kts
06-Oct-18 13:07 40.773273 -111.958354 320 4231ft 0kts
06-Oct-18 13:08 40.773273 -111.958354 320 4231ft 0kts
06-Oct-18 13:09 40.773273 -111.958354 320 4231ft 0kts
06-Oct-18 13:10 40.773273 -111.958354 320 4231ft 0kts
06-Oct-18 13:11 40.773273 -111.958354 320 4231ft 0kts
06-Oct-18 13:12 40.773273 -111.958354 320 4231ft 0kts
06-Oct-18 13:13 40.773273 -111.958354 320 4231ft 0kts
06-Oct-18 13:14 40.773273 -111.958354 320 4231ft 0kts
06-Oct-18 13:15 40.773273 -111.958354 320 4231ft 0kts
06-Oct-18 13:16 40.773273 -111.958354 320 4231ft 0kts
06-Oct-18 13:17 40.773274 -111.958354 320 4231ft 0kts
06-Oct-18 13:18 40.773274 -111.958354 320 4231ft 0kts
06-Oct-18 13:19 40.773346 -111.958442 315 4231ft 5kts
06-Oct-18 13:20 40.774122 -111.959800 286 4231ft 13kts
06-Oct-18 13:21 40.775172 -111.960636 358 4231ft 14kts
06-Oct-18 13:22 40.776789 -111.960641 0 4231ft 15kts
06-Oct-18 13:23 40.778474 -111.960406 42 4231ft 16kts
06-Oct-18 13:24 40.780178 -111.960015 2 4231ft 16kts
06-Oct-18 13:25 40.782089 -111.960030 0 4231ft 17kts
06-Oct-18 13:26 40.784192 -111.960028 0 4231ft 17kts
06-Oct-18 13:27 40.786293 -111.960031 358 4231ft 18kts
06-Oct-18 13:28 40.788401 -111.960025 358 4231ft 18kts
06-Oct-18 13:29 40.790593 -111.960029 0 4231ft 18kts
06-Oct-18 13:30 40.792791 -111.960020 359 4231ft 18kts
06-Oct-18 13:31 40.794343 -111.960024 358 4231ft 12kts
06-Oct-18 13:32 40.795743 -111.960028 359 4231ft 11kts
06-Oct-18 13:33 40.797297 -111.960032 359 4231ft 13kts
06-Oct-18 13:34 40.798058 -111.960347 284 4231ft 0kts
06-Oct-18 13:35 40.798058 -111.960347 284 4231ft 0kts
06-Oct-18 13:36 40.798062 -111.960388 275 4231ft 2kts
06-Oct-18 13:37 40.795764 -111.962044 181 4231ft 65kts
06-Oct-18 13:38 40.776857 -111.961178 170 4536ft 121kts
06-Oct-18 13:39 40.755552 -111.956921 173 5310ft 121kts
06-Oct-18 13:40 40.734091 -111.955675 177 6070ft 122kts
06-Oct-18 13:41 40.709092 -111.954514 177 6861ft 151kts
06-Oct-18 13:42 40.680050 -111.953510 177 7660ft 172kts
06-Oct-18 13:43 40.648175 -111.952497 177 8522ft 181kts
06-Oct-18 13:44 40.614589 -111.951411 177 9445ft 184kts
06-Oct-18 13:45 40.580802 -111.950298 177 10297ft 188kts
06-Oct-18 13:46 40.547650 -111.949194 177 11183ft 186kts
06-Oct-18 13:47 40.520291 -111.948269 177 11975ft 183kts
06-Oct-18 13:48 40.495188 -111.947444 177 12719ft 180kts
06-Oct-18 13:49 40.464086 -111.946413 177 13657ft 176kts
06-Oct-18 13:50 40.445181 -111.945771 177 14239ft 172kts
06-Oct-18 13:51 40.422218 -111.944985 177 14818ft 177kts
06-Oct-18 13:52 40.399033 -111.944213 177 15383ft 181kts
06-Oct-18 13:53 40.374473 -111.943407 177 15934ft 186kts
06-Oct-18 13:54 40.347116 -111.942510 177 15994ft 213kts
06-Oct-18 13:55 40.319598 -111.941653 177 15994ft 230kts
06-Oct-18 13:56 40.284219 -111.940538 177 15992ft 242kts
06-Oct-18 13:57 40.255795 -111.949515 204 15994ft 250kts
06-Oct-18 13:58 40.227236 -111.967807 203 15991ft 254kts
06-Oct-18 13:59 40.198356 -111.985233 202 15990ft 256kts
06-Oct-18 14:00 40.167429 -112.003555 202 15989ft 256kts
06-Oct-18 14:01 40.136501 -112.021763 202 16031ft 255kts
06-Oct-18 14:02 40.107624 -112.038722 202 16035ft 255kts
06-Oct-18 14:03 40.080961 -112.054362 202 16035ft 256kts
06-Oct-18 14:04 40.055788 -112.069117 202 16035ft 256kts
06-Oct-18 14:05 40.031989 -112.083054 202 16035ft 256kts
06-Oct-18 14:06 40.008158 -112.096999 202 16034ft 256kts
06-Oct-18 14:07 39.983864 -112.111206 202 16033ft 256kts
06-Oct-18 14:08 39.955064 -112.128033 202 16031ft 256kts
06-Oct-18 14:09 39.921188 -112.147803 202 16030ft 256kts
06-Oct-18 14:10 39.886249 -112.168173 202 16030ft 256kts
06-Oct-18 14:11 39.847984 -112.190392 203 16012ft 255kts
06-Oct-18 14:12 39.808981 -112.213125 203 16007ft 254kts
06-Oct-18 14:13 39.769555 -112.236038 202 16004ft 253kts
06-Oct-18 14:14 39.730956 -112.258435 202 16002ft 250kts
06-Oct-18 14:15 39.692006 -112.281000 202 16000ft 249kts
06-Oct-18 14:16 39.653949 -112.303021 202 16000ft 249kts
06-Oct-18 14:17 39.612421 -112.327022 202 16000ft 248kts
06-Oct-18 14:18 39.571640 -112.350561 202 15999ft 248kts
06-Oct-18 14:19 39.530490 -112.374282 202 15999ft 248kts
06-Oct-18 14:20 39.488300 -112.398571 202 15999ft 248kts
06-Oct-18 14:21 39.446109 -112.422829 202 15999ft 248kts
06-Oct-18 14:22 39.403658 -112.447204 202 15999ft 248kts
06-Oct-18 14:23 39.361036 -112.471643 202 15999ft 248kts
06-Oct-18 14:24 39.319267 -112.495563 202 15999ft 248kts
06-Oct-18 14:25 39.280154 -112.517376 202 15999ft 248kts
06-Oct-18 14:26 39.242928 -112.537712 202 15998ft 248kts
06-Oct-18 14:27 39.200284 -112.560975 202 15998ft 248kts
06-Oct-18 14:28 39.157731 -112.584157 202 15998ft 248kts
06-Oct-18 14:29 39.114189 -112.607847 202 15998ft 248kts
06-Oct-18 14:30 39.071104 -112.631255 202 15998ft 248kts
06-Oct-18 14:31 39.031800 -112.652582 201 15998ft 248kts
06-Oct-18 14:32 38.995877 -112.672023 201 15998ft 247kts
06-Oct-18 14:33 38.960279 -112.691284 201 15998ft 247kts
06-Oct-18 14:34 38.926274 -112.709668 202 15997ft 246kts
06-Oct-18 14:35 38.895323 -112.726386 202 15999ft 245kts
06-Oct-18 14:36 38.865759 -112.742349 202 16001ft 245kts
06-Oct-18 14:37 38.836876 -112.757957 202 16001ft 245kts
06-Oct-18 14:38 38.800380 -112.777632 202 16001ft 245kts
06-Oct-18 14:39 38.764087 -112.797168 202 16001ft 245kts
06-Oct-18 14:40 38.726664 -112.817265 202 16000ft 245kts
06-Oct-18 14:41 38.688643 -112.837664 202 16000ft 245kts
06-Oct-18 14:42 38.653341 -112.856593 203 16000ft 244kts
06-Oct-18 14:43 38.620624 -112.874122 203 16000ft 244kts
06-Oct-18 14:44 38.589447 -112.890811 203 16000ft 244kts
06-Oct-18 14:45 38.548662 -112.912617 203 16000ft 244kts
06-Oct-18 14:46 38.518988 -112.928467 204 15999ft 244kts
06-Oct-18 14:47 38.476371 -112.951204 204 16014ft 244kts
06-Oct-18 14:48 38.446879 -112.966921 204 16018ft 245kts
06-Oct-18 14:49 38.414409 -112.984212 204 16018ft 246kts
06-Oct-18 14:50 38.381332 -113.001809 204 16017ft 247kts
06-Oct-18 14:51 38.350268 -113.021996 220 16018ft 244kts
06-Oct-18 14:52 38.324983 -113.048929 221 16017ft 245kts
06-Oct-18 14:53 38.300272 -113.074604 220 16017ft 245kts
06-Oct-18 14:54 38.276012 -113.099594 220 16017ft 245kts
06-Oct-18 14:55 38.253729 -113.122471 220 16017ft 246kts
06-Oct-18 14:56 38.230446 -113.146336 220 16017ft 246kts
06-Oct-18 14:57 38.208691 -113.168613 220 16016ft 246kts
06-Oct-18 14:58 38.181167 -113.196772 220 16014ft 246kts
06-Oct-18 14:59 38.150234 -113.228382 220 16013ft 246kts
06-Oct-18 15:00 38.115873 -113.263453 220 16010ft 246kts
06-Oct-18 15:01 38.080749 -113.299262 220 16007ft 246kts
06-Oct-18 15:02 38.046808 -113.333819 220 16006ft 246kts
06-Oct-18 15:03 38.013644 -113.367544 220 16006ft 245kts
06-Oct-18 15:04 37.979687 -113.402027 220 16069ft 244kts
06-Oct-18 15:05 37.947161 -113.435030 220 16070ft 244kts
06-Oct-18 15:06 37.913212 -113.469433 220 16070ft 245kts
06-Oct-18 15:07 37.881497 -113.501526 220 16071ft 245kts
06-Oct-18 15:08 37.848818 -113.534561 220 16071ft 245kts
06-Oct-18 15:09 37.817459 -113.566226 220 16071ft 246kts
06-Oct-18 15:10 37.786607 -113.597345 220 16071ft 246kts
06-Oct-18 15:11 37.754895 -113.629293 220 16054ft 246kts
06-Oct-18 15:12 37.731938 -113.652405 220 16041ft 246kts
06-Oct-18 15:13 37.710667 -113.673790 220 16039ft 247kts
06-Oct-18 15:14 37.685517 -113.699071 220 16033ft 247kts
06-Oct-18 15:15 37.657389 -113.727312 220 16024ft 247kts
06-Oct-18 15:16 37.624541 -113.760257 220 16011ft 247kts
06-Oct-18 15:17 37.590878 -113.793976 220 16001ft 247kts
06-Oct-18 15:18 37.558607 -113.826263 220 16000ft 247kts
06-Oct-18 15:19 37.532275 -113.852579 220 16000ft 247kts
06-Oct-18 15:20 37.503207 -113.881605 220 16000ft 247kts
06-Oct-18 15:21 37.469993 -113.914733 220 15999ft 247kts
06-Oct-18 15:22 37.435409 -113.949185 220 15999ft 247kts
06-Oct-18 15:23 37.400999 -113.983428 220 15999ft 247kts
06-Oct-18 15:24 37.366371 -114.017844 220 15999ft 247kts
06-Oct-18 15:25 37.331632 -114.052326 220 15999ft 247kts
06-Oct-18 15:26 37.296282 -114.087370 220 15999ft 247kts
06-Oct-18 15:27 37.260482 -114.122820 220 15998ft 247kts
06-Oct-18 15:28 37.224556 -114.158349 220 15998ft 247kts
06-Oct-18 15:29 37.188819 -114.193644 220 15998ft 247kts
06-Oct-18 15:30 37.154008 -114.227988 220 15998ft 246kts
06-Oct-18 15:31 37.120629 -114.260878 220 15998ft 246kts
06-Oct-18 15:32 37.087417 -114.293543 220 15996ft 246kts
06-Oct-18 15:33 37.052287 -114.328077 220 15991ft 243kts
06-Oct-18 15:34 37.016388 -114.363334 220 15982ft 240kts
06-Oct-18 15:35 36.982255 -114.396822 220 15968ft 236kts
06-Oct-18 15:36 36.948558 -114.429834 220 15950ft 233kts
06-Oct-18 15:37 36.915540 -114.462126 220 15943ft 231kts
06-Oct-18 15:38 36.884456 -114.492493 220 15943ft 230kts
06-Oct-18 15:39 36.851795 -114.524380 220 15943ft 230kts
06-Oct-18 15:40 36.819138 -114.556228 220 15943ft 229kts
06-Oct-18 15:41 36.785633 -114.588859 220 15942ft 229kts
06-Oct-18 15:42 36.752278 -114.621319 220 15942ft 229kts
06-Oct-18 15:43 36.719518 -114.653151 219 15944ft 229kts
06-Oct-18 15:44 36.690176 -114.681638 219 15947ft 230kts
06-Oct-18 15:45 36.659395 -114.711499 219 15947ft 230kts
06-Oct-18 15:46 36.632591 -114.737472 219 15947ft 230kts
06-Oct-18 15:47 36.600264 -114.768762 219 15946ft 230kts
06-Oct-18 15:48 36.564981 -114.802879 219 15946ft 230kts
06-Oct-18 15:49 36.530018 -114.836640 219 15946ft 230kts
06-Oct-18 15:50 36.495037 -114.870381 219 15945ft 230kts
06-Oct-18 15:51 36.460063 -114.904076 219 15945ft 230kts
06-Oct-18 15:52 36.425379 -114.937451 219 15944ft 230kts
06-Oct-18 15:53 36.391101 -114.970379 220 15944ft 230kts
06-Oct-18 15:54 36.356393 -115.003557 221 15944ft 232kts
06-Oct-18 15:55 36.323258 -115.035336 222 15944ft 235kts
06-Oct-18 15:56 36.306251 -115.051658 222 15944ft 237kts
06-Oct-18 15:57 36.273167 -115.083386 223 15944ft 243kts
06-Oct-18 15:58 36.239208 -115.115916 223 15999ft 246kts
06-Oct-18 15:59 36.208538 -115.145260 223 16018ft 252kts
06-Oct-18 16:00 36.180353 -115.172220 222 16018ft 258kts
06-Oct-18 16:01 36.150791 -115.200455 222 16019ft 263kts
06-Oct-18 16:02 36.124467 -115.225504 222 16022ft 266kts
06-Oct-18 16:03 36.095465 -115.253073 222 16023ft 268kts
06-Oct-18 16:04 36.067765 -115.279403 222 16024ft 269kts
06-Oct-18 16:05 36.032767 -115.312646 222 16023ft 270kts
06-Oct-18 16:06 35.996828 -115.346740 222 16021ft 270kts
06-Oct-18 16:07 35.957236 -115.384255 222 16021ft 270kts
06-Oct-18 16:08 35.915812 -115.423454 222 16024ft 270kts
06-Oct-18 16:09 35.877067 -115.460069 222 16025ft 269kts
06-Oct-18 16:10 35.836066 -115.498770 222 16032ft 268kts
06-Oct-18 16:11 35.794985 -115.537491 222 16033ft 268kts
06-Oct-18 16:12 35.752664 -115.577348 222 16033ft 270kts
06-Oct-18 16:13 35.710939 -115.616559 222 16033ft 271kts
06-Oct-18 16:14 35.669752 -115.655220 221 16035ft 272kts
06-Oct-18 16:15 35.630929 -115.691626 221 16035ft 272kts
06-Oct-18 16:16 35.589438 -115.730477 221 16026ft 273kts
06-Oct-18 16:17 35.547934 -115.769283 221 16018ft 273kts
06-Oct-18 16:18 35.507752 -115.806803 221 16009ft 273kts
06-Oct-18 16:19 35.474308 -115.838001 221 16002ft 274kts
06-Oct-18 16:20 35.439884 -115.870076 221 15995ft 273kts
06-Oct-18 16:21 35.404860 -115.902680 221 15987ft 273kts
06-Oct-18 16:22 35.367813 -115.937119 221 15985ft 272kts
06-Oct-18 16:23 35.333120 -115.969326 221 16009ft 272kts
06-Oct-18 16:24 35.300492 -115.999597 221 16009ft 272kts
06-Oct-18 16:25 35.262835 -116.034486 221 16008ft 272kts
06-Oct-18 16:26 35.220004 -116.074121 221 16009ft 272kts
06-Oct-18 16:27 35.184988 -116.106489 221 16010ft 272kts
06-Oct-18 16:28 35.154902 -116.134264 221 16010ft 272kts
06-Oct-18 16:29 35.118268 -116.168053 221 16010ft 272kts
06-Oct-18 16:30 35.086839 -116.197010 221 16010ft 272kts
06-Oct-18 16:31 35.060967 -116.220829 221 16010ft 272kts
06-Oct-18 16:32 35.036112 -116.243682 221 16010ft 272kts
06-Oct-18 16:33 35.004563 -116.272699 221 16016ft 272kts
06-Oct-18 16:34 34.972656 -116.301992 221 16020ft 271kts
06-Oct-18 16:35 34.931478 -116.339753 220 16021ft 269kts
06-Oct-18 16:36 34.890444 -116.377337 220 16014ft 268kts
06-Oct-18 16:37 34.851862 -116.412612 220 16006ft 266kts
06-Oct-18 16:38 34.817151 -116.444306 220 16006ft 265kts
06-Oct-18 16:39 34.781512 -116.481242 229 16006ft 262kts
06-Oct-18 16:40 34.746182 -116.525236 229 16006ft 262kts
06-Oct-18 16:41 34.711357 -116.568158 229 16006ft 262kts
06-Oct-18 16:42 34.675732 -116.611969 229 15954ft 263kts
06-Oct-18 16:43 34.642033 -116.653328 228 15952ft 262kts
06-Oct-18 16:44 34.609071 -116.693743 228 15954ft 262kts
06-Oct-18 16:45 34.576816 -116.733247 228 15954ft 262kts
06-Oct-18 16:46 34.542392 -116.775354 228 15954ft 262kts
06-Oct-18 16:47 34.507429 -116.818067 228 15954ft 262kts
06-Oct-18 16:48 34.472627 -116.860531 228 15954ft 262kts
06-Oct-18 16:49 34.437386 -116.903414 229 15960ft 262kts
06-Oct-18 16:50 34.403335 -116.944736 230 15976ft 261kts
06-Oct-18 16:51 34.379453 -116.973759 230 15985ft 260kts
06-Oct-18 16:52 34.350392 -117.009055 231 15995ft 259kts
06-Oct-18 16:53 34.315668 -117.051181 232 16011ft 258kts
06-Oct-18 16:54 34.282731 -117.091123 233 15879ft 262kts
06-Oct-18 16:55 34.240574 -117.118164 192 14988ft 304kts
06-Oct-18 16:56 34.190428 -117.124312 193 14037ft 275kts
06-Oct-18 16:57 34.144966 -117.130824 194 13001ft 259kts
06-Oct-18 16:58 34.109439 -117.136152 193 11999ft 255kts
06-Oct-18 16:59 34.061061 -117.143265 192 11026ft 252kts
06-Oct-18 17:00 34.028351 -117.148011 193 11011ft 255kts
06-Oct-18 17:01 33.977984 -117.155428 192 11011ft 259kts
06-Oct-18 17:02 33.942270 -117.160696 192 11011ft 261kts
06-Oct-18 17:03 33.894272 -117.167773 192 11008ft 262kts
06-Oct-18 17:04 33.861337 -117.172623 192 11006ft 262kts
06-Oct-18 17:05 33.821476 -117.178489 192 11006ft 262kts
06-Oct-18 17:06 33.788903 -117.187175 225 10420ft 227kts
06-Oct-18 17:07 33.779078 -117.214961 269 9773ft 206kts
06-Oct-18 17:08 33.777921 -117.245074 272 9074ft 202kts
06-Oct-18 17:09 33.777672 -117.275359 273 8321ft 201kts
06-Oct-18 17:10 33.777687 -117.306538 273 8012ft 199kts
06-Oct-18 17:11 33.777895 -117.336104 273 8007ft 199kts
06-Oct-18 17:12 33.778276 -117.371568 273 7998ft 200kts
06-Oct-18 17:13 33.778679 -117.415454 273 7995ft 199kts
06-Oct-18 17:14 33.779060 -117.455733 273 7993ft 199kts
06-Oct-18 17:15 33.779418 -117.494630 273 7992ft 199kts
06-Oct-18 17:16 33.779773 -117.535047 273 7983ft 201kts
06-Oct-18 17:17 33.780199 -117.576611 273 7315ft 200kts
06-Oct-18 17:18 33.771091 -117.619272 263 6275ft 189kts
06-Oct-18 17:19 33.789092 -117.651446 321 5253ft 179kts
06-Oct-18 17:20 33.817776 -117.676169 321 4256ft 204kts
06-Oct-18 17:21 33.835835 -117.708561 279 3982ft 155kts
06-Oct-18 17:22 33.841795 -117.736190 282 3795ft 121kts
06-Oct-18 17:23 33.848149 -117.760707 236 3349ft 103kts
06-Oct-18 17:24 33.831166 -117.771056 207 3301ft 96kts
06-Oct-18 17:25 33.815860 -117.780039 208 2998ft 88kts
06-Oct-18 17:26 33.801115 -117.789226 208 2689ft 89kts
06-Oct-18 17:27 33.786238 -117.798631 207 2367ft 88kts
06-Oct-18 17:28 33.771440 -117.808028 207 2044ft 88kts
06-Oct-18 17:29 33.756540 -117.817487 206 1718ft 88kts
06-Oct-18 17:30 33.742649 -117.826314 205 1413ft 88kts
06-Oct-18 17:31 33.728294 -117.835433 205 1101ft 87kts
06-Oct-18 17:32 33.714557 -117.844151 205 804ft 87kts
06-Oct-18 17:33 33.700459 -117.853103 205 498ft 83kts
06-Oct-18 17:34 33.686862 -117.861730 205 212ft 84kts
06-Oct-18 17:35 33.675071 -117.869168 207 60ft 45kts
06-Oct-18 17:36 33.670049 -117.872225 175 60ft 20kts
06-Oct-18 17:37 33.669196 -117.871665 130 60ft 0kts
06-Oct-18 17:38 33.668043 -117.872013 219 60ft 14kts
06-Oct-18 17:39 33.665934 -117.873761 205 60ft 5kts
06-Oct-18 17:40 33.665796 -117.873133 352 60ft 0kts
06-Oct-18 17:41 33.665796 -117.873133 352 60ft 0kts
06-Oct-18 17:42 33.665796 -117.873133 352 60ft 0kts
06-Oct-18 17:43 33.665796 -117.873133 352 60ft 0kts
06-Oct-18 17:44 33.665796 -117.873133 352 60ft 0kts
06-Oct-18 17:45 33.665796 -117.873133 352 60ft 0kts
06-Oct-18 17:46 33.665796 -117.873133 352 60ft 0kts
06-Oct-18 17:47 33.665796 -117.873133 352 60ft 0kts
06-Oct-18 17:48 33.665796 -117.873133 352 60ft 0kts
06-Oct-18 17:49 33.665796 -117.873133 352 60ft 0kts
06-Oct-18 17:50 33.665796 -117.873133 352 60ft 0kts

Navigation Log

Ident Type
Flight plan parsing failed, navigation log unavailable